Akutan, Alaska
Current Conditions -  °F | °C
As of 1:15 PM on Tuesday 21 Oct 2014 (Local Time) from PAUT Reporting Station
Overcast Overcast  
Wind Chill: 28°   Ceiling: 3300
Heat Index: 40°   Visibility: 10mi
Dew Point: 31°   Wind: 35mph
Humidity: 71%   Direction: 310°NW
Pressure: 29.54"   Gusts: 40mph
Location:  54.14°N, 165.77°W
Report Text: PAUT 212115Z AUTO 31030G35KT 10SM SCT026 BKN033 OVC060 04/00 A2954 RMK AO2 T00441005
Loading
Personal Weather Stations






























Interactive Weather Map
Tropical Storm Tracking
New forecast layout! Learn more

10-Day Weather Forecast

Advertisements
Track Severe Weather on mobile